createdAt,value
2018-03-31T00:00:25.150Z,6.00
2018-03-31T00:02:52.419Z,6.00
2018-03-31T00:05:19.444Z,6.00
2018-03-31T00:07:46.833Z,6.00
2018-03-31T00:10:13.875Z,6.00
2018-03-31T00:12:40.810Z,6.10
2018-03-31T00:15:08.252Z,6.00
2018-03-31T00:17:35.624Z,6.00
2018-03-31T00:20:02.759Z,6.00
2018-03-31T00:22:29.806Z,6.10
2018-03-31T00:24:57.265Z,6.10
2018-03-31T00:27:24.723Z,6.10
2018-03-31T00:29:52.280Z,6.10
2018-03-31T00:32:19.742Z,6.10
2018-03-31T00:34:47.130Z,6.10
2018-03-31T00:37:14.184Z,6.20
2018-03-31T00:39:41.191Z,6.20
2018-03-31T00:42:08.566Z,6.30
2018-03-31T00:44:35.593Z,6.40
2018-03-31T00:47:02.879Z,6.30
2018-03-31T00:49:29.896Z,6.20
2018-03-31T00:51:57.251Z,6.30
2018-03-31T00:54:24.609Z,6.40
2018-03-31T00:56:52.164Z,6.20
2018-03-31T00:59:19.529Z,6.10
2018-03-31T01:01:46.566Z,6.10
2018-03-31T01:04:13.939Z,6.30
2018-03-31T01:06:48.992Z,6.40
2018-03-31T01:09:16.026Z,6.60
2018-03-31T01:11:43.155Z,6.70
2018-03-31T01:14:10.451Z,6.70
2018-03-31T01:16:37.457Z,6.70
2018-03-31T01:19:05.324Z,6.50
2018-03-31T01:21:32.372Z,6.60
2018-03-31T01:23:59.831Z,6.60
2018-03-31T01:26:27.219Z,6.70
2018-03-31T01:28:54.335Z,6.70
2018-03-31T01:31:21.691Z,6.70
2018-03-31T01:33:49.353Z,6.60
2018-03-31T01:36:16.400Z,6.70
2018-03-31T01:38:43.452Z,6.60
2018-03-31T01:41:10.908Z,6.60
2018-03-31T01:43:38.364Z,6.60
2018-03-31T01:46:05.721Z,6.70
2018-03-31T01:48:33.179Z,6.70
2018-03-31T01:51:00.533Z,6.70
2018-03-31T01:53:27.913Z,6.70
2018-03-31T01:55:54.836Z,6.60
2018-03-31T01:58:22.294Z,6.50
2018-03-31T02:00:49.980Z,6.20
2018-03-31T02:03:17.106Z,6.20
2018-03-31T02:05:44.460Z,6.10
2018-03-31T02:08:11.920Z,6.30
2018-03-31T02:10:39.375Z,6.50
2018-03-31T02:13:06.833Z,6.50
2018-03-31T02:15:34.289Z,6.40
2018-03-31T02:18:01.646Z,6.10
2018-03-31T02:20:28.692Z,6.20
2018-03-31T02:22:56.082Z,6.00
2018-03-31T02:25:23.014Z,5.90
2018-03-31T02:27:50.146Z,5.80
2018-03-31T02:30:22.929Z,5.80
2018-03-31T02:32:49.885Z,6.00
2018-03-31T02:35:17.331Z,6.00
2018-03-31T02:37:44.790Z,6.00
2018-03-31T02:40:12.246Z,6.20
2018-03-31T02:42:39.602Z,6.20
2018-03-31T02:45:07.780Z,5.90
2018-03-31T02:47:34.824Z,6.00
2018-03-31T02:50:02.283Z,5.90
2018-03-31T02:52:29.636Z,5.90
2018-03-31T02:54:57.939Z,6.00
2018-03-31T02:57:24.880Z,6.00
2018-03-31T02:59:51.942Z,5.90
2018-03-31T03:02:18.960Z,5.90
2018-03-31T03:04:46.416Z,6.00
2018-03-31T03:07:13.461Z,5.90
2018-03-31T03:09:40.835Z,5.70
2018-03-31T03:12:07.864Z,5.60
2018-03-31T03:14:35.320Z,5.60
2018-03-31T03:17:02.726Z,5.70
2018-03-31T03:19:29.724Z,5.70
2018-03-31T03:21:56.877Z,5.80
2018-03-31T03:24:24.443Z,5.60
2018-03-31T03:26:51.809Z,5.50
2018-03-31T03:29:18.838Z,5.50
2018-03-31T03:31:45.992Z,5.50
2018-03-31T03:34:12.959Z,5.60
2018-03-31T03:36:39.896Z,5.60
2018-03-31T03:39:06.862Z,5.40
2018-03-31T03:41:33.893Z,5.40
2018-03-31T03:44:00.926Z,5.30
2018-03-31T03:46:28.378Z,5.30
2018-03-31T03:48:55.840Z,5.40
2018-03-31T03:51:23.192Z,5.70
2018-03-31T03:53:50.652Z,5.50
2018-03-31T03:56:17.965Z,5.40
2018-03-31T03:58:44.978Z,5.50
2018-03-31T04:01:12.421Z,5.40
2018-03-31T04:03:39.456Z,5.50
2018-03-31T04:06:06.608Z,5.30
2018-03-31T04:08:34.373Z,5.20
2018-03-31T04:11:01.696Z,5.30
2018-03-31T04:13:28.673Z,5.40
2018-03-31T04:15:56.051Z,5.20
2018-03-31T04:18:23.104Z,5.20
2018-03-31T04:20:51.171Z,5.20
2018-03-31T04:23:18.195Z,5.30
2018-03-31T04:25:45.552Z,5.20
2018-03-31T04:28:12.954Z,5.10
2018-03-31T04:30:40.363Z,5.10
2018-03-31T04:33:07.824Z,5.30
2018-03-31T04:35:35.280Z,5.30
2018-03-31T04:38:02.736Z,5.20
2018-03-31T04:40:30.194Z,5.10
2018-03-31T04:42:57.879Z,5.10
2018-03-31T04:45:24.826Z,5.20
2018-03-31T04:47:52.773Z,5.40
2018-03-31T04:50:20.230Z,5.40
2018-03-31T04:52:47.687Z,5.40
2018-03-31T04:55:16.579Z,5.10
2018-03-31T04:57:44.035Z,5.00
2018-03-31T05:00:11.494Z,5.00
2018-03-31T05:02:38.874Z,5.00
2018-03-31T05:05:05.922Z,4.90
2018-03-31T05:07:32.868Z,5.10
2018-03-31T05:09:59.790Z,5.20
2018-03-31T05:12:27.452Z,5.20
2018-03-31T05:14:54.926Z,5.10
2018-03-31T05:17:24.013Z,5.30
2018-03-31T05:19:52.411Z,5.20
2018-03-31T05:22:19.433Z,5.30
2018-03-31T05:24:46.893Z,5.20
2018-03-31T05:27:14.171Z,5.30
2018-03-31T05:29:41.191Z,5.40
2018-03-31T05:32:08.649Z,5.40
2018-03-31T05:34:36.105Z,5.30
2018-03-31T05:37:03.581Z,5.00
2018-03-31T05:39:30.462Z,5.00
2018-03-31T05:41:57.556Z,5.00
2018-03-31T05:44:25.028Z,5.00
2018-03-31T05:46:52.912Z,5.10
2018-03-31T05:49:20.646Z,5.10
2018-03-31T05:51:48.035Z,5.00
2018-03-31T05:54:15.049Z,4.90
2018-03-31T05:56:42.611Z,4.80
2018-03-31T05:59:10.070Z,4.80
2018-03-31T06:01:37.414Z,5.00
2018-03-31T06:04:04.575Z,5.10
2018-03-31T06:06:32.031Z,5.20
2018-03-31T06:08:59.496Z,5.00
2018-03-31T06:11:27.048Z,4.90
2018-03-31T06:13:54.507Z,5.10
2018-03-31T06:16:21.964Z,5.00
2018-03-31T06:18:49.523Z,5.20
2018-03-31T06:21:16.879Z,5.00
2018-03-31T06:23:44.668Z,5.10
2018-03-31T06:26:11.692Z,5.10
2018-03-31T06:28:39.149Z,5.00
2018-03-31T06:31:06.607Z,4.90
2018-03-31T06:33:41.548Z,5.00
2018-03-31T06:36:08.925Z,5.30
2018-03-31T06:38:35.945Z,5.40
2018-03-31T06:41:02.992Z,5.30
2018-03-31T06:43:30.449Z,5.30
2018-03-31T06:45:57.818Z,5.30
2018-03-31T06:48:24.749Z,5.40
2018-03-31T06:50:52.309Z,5.50
2018-03-31T06:53:19.768Z,5.40
2018-03-31T06:55:47.225Z,5.40
2018-03-31T06:58:14.789Z,5.30
2018-03-31T07:00:42.242Z,5.40
2018-03-31T07:03:09.706Z,5.40
2018-03-31T07:05:36.662Z,5.40
2018-03-31T07:08:03.695Z,5.50
2018-03-31T07:10:31.202Z,5.60
2018-03-31T07:12:58.441Z,5.60
2018-03-31T07:15:25.569Z,5.60
2018-03-31T07:18:08.065Z,5.50
2018-03-31T07:20:35.550Z,5.40
2018-03-31T07:23:04.640Z,5.30
2018-03-31T07:25:31.563Z,5.40
2018-03-31T07:27:59.021Z,5.30
2018-03-31T07:30:26.683Z,5.50
2018-03-31T07:32:54.756Z,5.40
2018-03-31T07:35:21.804Z,5.00
2018-03-31T07:38:08.410Z,5.30
2018-03-31T07:40:36.076Z,5.30
2018-03-31T07:43:04.862Z,5.30
2018-03-31T07:45:32.218Z,5.20
2018-03-31T07:47:59.675Z,5.30
2018-03-31T07:50:27.235Z,5.10
2018-03-31T07:52:54.618Z,5.30
2018-03-31T07:55:21.536Z,5.40
2018-03-31T07:57:49.100Z,5.40
2018-03-31T08:00:16.253Z,5.40
2018-03-31T08:02:43.295Z,5.50
2018-03-31T08:05:12.229Z,5.60
2018-03-31T08:07:40.392Z,5.50
2018-03-31T08:10:27.578Z,5.30
2018-03-31T08:13:00.694Z,5.10
2018-03-31T08:15:29.151Z,5.00
2018-03-31T08:17:56.613Z,5.10
2018-03-31T08:20:24.480Z,4.80
2018-03-31T08:22:52.155Z,4.80
2018-03-31T08:25:19.186Z,4.80
2018-03-31T08:27:46.568Z,4.90
2018-03-31T08:33:27.061Z,5.30
2018-03-31T08:35:54.073Z,5.30
2018-03-31T08:38:21.456Z,5.30
2018-03-31T08:40:48.501Z,5.30
2018-03-31T08:43:15.626Z,5.30
2018-03-31T08:45:42.582Z,5.30
2018-03-31T08:48:09.953Z,5.30
2018-03-31T08:50:36.923Z,5.20
2018-03-31T08:53:04.228Z,5.40
2018-03-31T08:55:31.629Z,5.40
2018-03-31T08:57:58.837Z,5.10
2018-03-31T09:00:25.884Z,5.20
2018-03-31T09:02:53.262Z,5.40
2018-03-31T09:05:40.769Z,5.50
2018-03-31T09:08:08.121Z,5.30
2018-03-31T09:10:35.272Z,5.40
2018-03-31T09:13:03.345Z,5.50
2018-03-31T09:15:30.807Z,5.50
2018-03-31T09:18:05.121Z,5.50
2018-03-31T09:20:32.481Z,5.40
2018-03-31T09:23:02.685Z,5.20
2018-03-31T09:25:29.646Z,5.20
2018-03-31T09:28:04.162Z,5.20
2018-03-31T09:30:31.833Z,5.20
2018-03-31T09:32:59.210Z,5.40
2018-03-31T09:35:26.233Z,5.50
2018-03-31T09:37:54.099Z,5.50
2018-03-31T09:40:21.661Z,5.50
2018-03-31T09:42:49.118Z,5.60
2018-03-31T09:45:16.585Z,5.70
2018-03-31T09:47:44.188Z,5.80
2018-03-31T09:50:18.959Z,5.50
2018-03-31T09:52:50.614Z,5.50
2018-03-31T09:55:23.141Z,5.50
2018-03-31T09:57:57.712Z,5.50
2018-03-31T10:00:34.900Z,5.60
2018-03-31T10:03:06.762Z,5.50
2018-03-31T10:05:42.310Z,5.50
2018-03-31T10:08:15.418Z,5.50
2018-03-31T10:10:46.195Z,5.70
2018-03-31T10:13:17.581Z,5.50
2018-03-31T10:15:55.802Z,5.70
2018-03-31T10:18:29.826Z,5.80
2018-03-31T10:20:58.728Z,5.80
2018-03-31T10:23:31.786Z,5.70
2018-03-31T10:26:04.214Z,5.80
2018-03-31T10:31:20.372Z,6.00
2018-03-31T10:33:49.242Z,6.10
2018-03-31T10:36:18.292Z,6.10
2018-03-31T10:38:47.834Z,6.10
2018-03-31T10:41:16.326Z,6.10
2018-03-31T10:43:44.832Z,6.10
2018-03-31T10:46:14.472Z,6.30
2018-03-31T10:48:43.942Z,6.20
2018-03-31T10:51:14.995Z,6.20
2018-03-31T10:53:45.542Z,6.10
2018-03-31T10:56:19.292Z,6.20
2018-03-31T10:58:49.303Z,6.30
2018-03-31T11:01:23.451Z,6.30
2018-03-31T11:03:53.468Z,6.30
2018-03-31T11:06:26.264Z,6.40
2018-03-31T11:09:01.434Z,6.40
2018-03-31T11:11:31.339Z,6.30
2018-03-31T11:14:01.103Z,6.40
2018-03-31T11:16:29.153Z,6.50
2018-03-31T11:21:35.175Z,6.50
2018-03-31T11:24:07.139Z,6.50
2018-03-31T11:26:38.589Z,6.50
2018-03-31T11:29:17.716Z,6.60
2018-03-31T11:31:55.589Z,6.70
2018-03-31T11:34:29.115Z,6.80
2018-03-31T11:36:56.967Z,6.80
2018-03-31T11:39:25.163Z,6.90
2018-03-31T11:41:54.033Z,6.90
2018-03-31T11:44:34.221Z,6.90
2018-03-31T11:47:08.098Z,6.90
2018-03-31T11:49:39.997Z,7.00
2018-03-31T11:52:15.621Z,6.90
2018-03-31T11:54:46.246Z,7.00
2018-03-31T11:57:15.474Z,7.10
2018-03-31T11:59:44.989Z,7.10
2018-03-31T12:02:13.241Z,7.10
2018-03-31T12:04:43.557Z,7.00
2018-03-31T12:07:12.358Z,7.10
2018-03-31T12:09:43.908Z,7.00
2018-03-31T12:14:48.858Z,7.00
2018-03-31T12:17:17.969Z,7.10
2018-03-31T12:19:46.023Z,7.20
2018-03-31T12:22:15.840Z,7.20
2018-03-31T12:24:45.083Z,7.10
2018-03-31T12:27:14.238Z,7.10
2018-03-31T12:29:49.588Z,7.00
2018-03-31T12:32:19.945Z,7.10
2018-03-31T12:34:49.395Z,7.10
2018-03-31T12:37:18.098Z,7.10
2018-03-31T12:39:45.790Z,7.00
2018-03-31T12:42:14.650Z,6.90
2018-03-31T12:44:47.693Z,7.10
2018-03-31T12:47:17.953Z,7.10
2018-03-31T12:49:46.958Z,7.10
2018-03-31T12:52:16.700Z,7.00
2018-03-31T12:55:04.780Z,7.00
2018-03-31T12:57:48.657Z,7.00
2018-03-31T13:00:21.408Z,6.90
2018-03-31T13:02:52.682Z,7.00
2018-03-31T13:05:27.202Z,6.90
2018-03-31T13:07:56.708Z,6.80
2018-03-31T13:10:27.238Z,6.70
2018-03-31T13:12:57.562Z,6.80
2018-03-31T13:15:27.575Z,6.80
2018-03-31T13:17:56.951Z,6.90
2018-03-31T13:20:26.689Z,7.00
2018-03-31T13:23:09.101Z,7.00
2018-03-31T13:25:37.457Z,6.80
2018-03-31T13:28:07.680Z,6.70
2018-03-31T13:30:37.274Z,6.80
2018-03-31T13:33:12.310Z,6.80
2018-03-31T13:35:40.518Z,6.90
2018-03-31T13:38:07.693Z,7.00
2018-03-31T13:40:35.812Z,7.00
2018-03-31T13:43:02.847Z,6.80
2018-03-31T13:45:29.808Z,6.80
2018-03-31T13:47:57.000Z,6.80
2018-03-31T13:50:24.393Z,6.90
2018-03-31T13:52:58.173Z,7.10
2018-03-31T13:55:25.059Z,7.10
2018-03-31T13:57:53.309Z,7.10
2018-03-31T14:00:20.132Z,7.20
2018-03-31T14:02:46.981Z,7.20
2018-03-31T14:05:13.784Z,7.20
2018-03-31T14:07:44.372Z,7.20
2018-03-31T14:10:13.754Z,7.10
2018-03-31T14:15:38.167Z,7.10
2018-03-31T14:18:08.325Z,7.20
2018-03-31T14:20:37.831Z,7.10
2018-03-31T14:23:07.956Z,7.10
2018-03-31T14:25:37.686Z,7.20
2018-03-31T14:28:12.733Z,7.20
2018-03-31T14:30:42.512Z,7.00
2018-03-31T14:33:09.591Z,7.00
2018-03-31T14:35:36.481Z,7.10
2018-03-31T14:38:04.145Z,7.20
2018-03-31T14:40:55.265Z,6.90
2018-03-31T14:43:30.708Z,7.00
2018-03-31T14:46:00.220Z,7.00
2018-03-31T14:48:29.297Z,7.00
2018-03-31T14:51:01.040Z,6.90
2018-03-31T14:53:30.594Z,7.00
2018-03-31T14:56:04.052Z,7.10
2018-03-31T14:58:46.284Z,7.00
2018-03-31T15:01:16.358Z,7.00
2018-03-31T15:03:45.641Z,7.00
2018-03-31T15:06:20.847Z,7.10
2018-03-31T15:11:45.147Z,7.00
2018-03-31T15:14:16.626Z,6.90
2018-03-31T15:16:46.987Z,7.00
2018-03-31T15:19:17.199Z,6.90
2018-03-31T15:21:50.810Z,7.10
2018-03-31T15:24:20.350Z,7.10
2018-03-31T15:26:49.692Z,6.80
2018-03-31T15:29:19.529Z,7.10
2018-03-31T15:31:49.081Z,7.20
2018-03-31T15:34:18.980Z,7.20
2018-03-31T15:36:50.466Z,7.30
2018-03-31T15:39:27.895Z,7.40
2018-03-31T15:41:59.777Z,7.30
2018-03-31T15:44:29.271Z,7.20
2018-03-31T15:46:58.701Z,7.30
2018-03-31T15:49:29.631Z,7.20
2018-03-31T15:52:02.044Z,7.30
2018-03-31T15:54:37.307Z,7.30
2018-03-31T15:57:06.631Z,7.40
2018-03-31T15:59:36.378Z,7.40
2018-03-31T16:02:10.486Z,7.50
2018-03-31T16:04:43.757Z,7.50
2018-03-31T16:07:13.319Z,7.50
2018-03-31T16:09:45.907Z,7.60
2018-03-31T16:12:15.379Z,7.70
2018-03-31T16:14:45.269Z,7.60
2018-03-31T16:17:16.762Z,7.60
2018-03-31T16:19:47.810Z,7.60
2018-03-31T16:22:35.481Z,7.60
2018-03-31T16:25:12.851Z,7.50
2018-03-31T16:27:46.490Z,7.40
2018-03-31T16:30:16.871Z,7.20
2018-03-31T16:32:46.472Z,7.30
2018-03-31T16:35:16.208Z,7.20
2018-03-31T16:37:45.957Z,7.10
2018-03-31T16:43:08.573Z,6.80
2018-03-31T16:45:38.409Z,6.70
2018-03-31T16:48:18.305Z,6.70
2018-03-31T16:50:52.357Z,6.60
2018-03-31T16:53:22.766Z,6.80
2018-03-31T16:55:52.322Z,6.80
2018-03-31T16:58:24.439Z,6.70
2018-03-31T17:00:54.166Z,6.70
2018-03-31T17:03:27.606Z,6.80
2018-03-31T17:06:03.120Z,6.80
2018-03-31T17:08:33.149Z,6.60
2018-03-31T17:11:25.390Z,6.60
2018-03-31T17:13:55.717Z,6.40
2018-03-31T17:16:38.392Z,6.30
2018-03-31T17:19:09.806Z,6.40
2018-03-31T17:21:40.220Z,6.50
2018-03-31T17:24:22.912Z,6.40
2018-03-31T17:26:59.630Z,6.40
2018-03-31T17:29:33.257Z,6.20
2018-03-31T17:32:02.688Z,6.20
2018-03-31T17:34:36.611Z,6.20
2018-03-31T17:37:09.597Z,6.30
2018-03-31T17:39:41.282Z,6.40
2018-03-31T17:42:20.571Z,6.40
2018-03-31T17:44:59.437Z,6.60
2018-03-31T17:47:34.186Z,6.30
2018-03-31T17:50:18.426Z,6.30
2018-03-31T17:52:48.177Z,6.40
2018-03-31T17:55:18.300Z,6.40
2018-03-31T17:57:48.761Z,6.40
2018-03-31T18:00:18.566Z,6.20
2018-03-31T18:02:48.232Z,6.20
2018-03-31T18:05:19.289Z,6.30
2018-03-31T18:07:52.830Z,6.30
2018-03-31T18:10:22.319Z,6.30
2018-03-31T18:13:07.289Z,6.20
2018-03-31T18:15:37.742Z,6.40
2018-03-31T18:18:07.821Z,6.00
2018-03-31T18:20:37.308Z,5.70
2018-03-31T18:23:07.192Z,5.80
2018-03-31T18:25:43.471Z,5.60
2018-03-31T18:28:13.996Z,5.70
2018-03-31T18:30:43.843Z,5.50
2018-03-31T18:33:17.540Z,5.40
2018-03-31T18:35:54.219Z,5.50
2018-03-31T18:38:23.675Z,5.30
2018-03-31T18:40:53.303Z,5.30
2018-03-31T18:43:22.943Z,5.20
2018-03-31T18:45:52.573Z,5.40
2018-03-31T18:48:24.419Z,5.20
2018-03-31T18:50:55.064Z,5.30
2018-03-31T18:53:32.916Z,5.20
2018-03-31T18:56:02.850Z,5.30
2018-03-31T18:58:32.288Z,5.40
2018-03-31T19:01:03.230Z,5.60
2018-03-31T19:03:33.347Z,5.50
2018-03-31T19:06:03.701Z,5.60
2018-03-31T19:08:37.860Z,5.70
2018-03-31T19:11:07.465Z,5.80
2018-03-31T19:13:37.440Z,5.90
2018-03-31T19:16:07.731Z,5.90
2018-03-31T19:18:37.733Z,5.90
2018-03-31T19:21:07.480Z,5.90
2018-03-31T19:23:37.756Z,5.90
2018-03-31T19:26:07.663Z,5.90
2018-03-31T19:28:37.465Z,5.90
2018-03-31T19:31:06.852Z,5.90
2018-03-31T19:33:33.909Z,5.90
2018-03-31T19:36:06.834Z,5.90
2018-03-31T19:38:37.103Z,5.90
2018-03-31T19:41:03.971Z,5.90
2018-03-31T19:43:31.207Z,5.60
2018-03-31T19:45:58.017Z,5.50
2018-03-31T19:48:25.284Z,5.50
2018-03-31T19:50:52.101Z,5.60
2018-03-31T19:53:19.311Z,5.60
2018-03-31T19:55:46.189Z,5.60
2018-03-31T19:58:13.026Z,5.70
2018-03-31T20:00:50.200Z,5.50
2018-03-31T20:03:17.041Z,5.50
2018-03-31T20:05:45.939Z,5.60
2018-03-31T20:08:12.754Z,5.30
2018-03-31T20:10:39.575Z,5.40
2018-03-31T20:13:09.730Z,5.50
2018-03-31T20:15:36.542Z,5.50
2018-03-31T20:18:21.156Z,5.50
2018-03-31T20:20:48.370Z,5.40
2018-03-31T20:23:15.616Z,5.40
2018-03-31T20:25:42.759Z,5.30
2018-03-31T20:28:09.642Z,5.20
2018-03-31T20:30:36.897Z,5.10
2018-03-31T20:33:04.110Z,5.20
2018-03-31T20:35:31.025Z,4.90
2018-03-31T20:37:58.573Z,4.70
2018-03-31T20:40:25.429Z,4.50
2018-03-31T20:42:52.278Z,4.60
2018-03-31T20:45:19.106Z,4.40
2018-03-31T20:47:45.934Z,4.60
2018-03-31T20:50:13.219Z,4.50
2018-03-31T20:52:40.071Z,4.30
2018-03-31T20:55:07.275Z,4.70
2018-03-31T20:57:34.190Z,4.50
2018-03-31T21:00:08.578Z,4.30
2018-03-31T21:02:35.484Z,4.10
2018-03-31T21:05:02.360Z,3.90
2018-03-31T21:07:29.208Z,4.00
2018-03-31T21:09:56.450Z,4.40
2018-03-31T21:12:30.696Z,4.00
2018-03-31T21:14:57.974Z,4.30
2018-03-31T21:17:30.516Z,4.30
2018-03-31T21:19:57.378Z,4.40
2018-03-31T21:22:24.734Z,4.50
2018-03-31T21:24:51.908Z,4.60
2018-03-31T21:27:18.824Z,4.60
2018-03-31T21:29:45.707Z,4.60
2018-03-31T21:32:12.561Z,4.60
2018-03-31T21:34:39.474Z,4.60
2018-03-31T21:37:06.737Z,4.60
2018-03-31T21:39:34.992Z,4.50
2018-03-31T21:42:23.498Z,4.50
2018-03-31T21:44:50.430Z,4.40
2018-03-31T21:47:17.710Z,4.40
2018-03-31T21:49:44.559Z,4.40
2018-03-31T21:52:11.416Z,4.30
2018-03-31T21:55:00.668Z,4.30
2018-03-31T21:57:27.533Z,4.30
2018-03-31T21:59:54.819Z,4.20
2018-03-31T22:02:35.666Z,4.20
2018-03-31T22:05:02.546Z,4.10
2018-03-31T22:07:31.496Z,4.10
2018-03-31T22:09:58.777Z,4.10
2018-03-31T22:12:30.575Z,4.00
2018-03-31T22:15:11.553Z,4.00
2018-03-31T22:17:38.428Z,4.00
2018-03-31T22:20:07.258Z,3.90
2018-03-31T22:22:34.125Z,3.90
2018-03-31T22:25:01.464Z,3.80
2018-03-31T22:27:30.818Z,3.80
2018-03-31T22:30:00.341Z,3.80
2018-03-31T22:32:30.413Z,3.70
2018-03-31T22:35:00.587Z,3.70
2018-03-31T22:37:30.116Z,3.70
2018-03-31T22:40:09.764Z,3.60
2018-03-31T22:42:39.012Z,3.60
2018-03-31T22:45:08.363Z,3.50
2018-03-31T22:47:35.292Z,3.50
2018-03-31T22:50:02.138Z,3.40
2018-03-31T22:52:28.988Z,3.40
2018-03-31T22:55:19.945Z,3.40
2018-03-31T22:57:50.901Z,3.40
2018-03-31T23:00:17.762Z,3.30
2018-03-31T23:02:44.626Z,3.30
2018-03-31T23:05:23.866Z,3.30
2018-03-31T23:07:51.126Z,3.20
2018-03-31T23:10:18.363Z,3.20
2018-03-31T23:12:45.624Z,3.10
2018-03-31T23:15:12.877Z,3.10
2018-03-31T23:17:40.497Z,3.10
2018-03-31T23:20:07.383Z,3.00
2018-03-31T23:22:34.227Z,3.00
2018-03-31T23:25:01.105Z,3.00
2018-03-31T23:27:27.966Z,3.00
2018-03-31T23:32:49.283Z,2.90
2018-03-31T23:35:16.168Z,2.90
2018-03-31T23:37:43.427Z,2.90
2018-03-31T23:40:10.684Z,2.90
2018-03-31T23:42:43.214Z,2.90
2018-03-31T23:45:10.442Z,2.80
2018-03-31T23:47:37.294Z,2.80
2018-03-31T23:50:04.194Z,2.70
2018-03-31T23:52:32.015Z,2.70
2018-03-31T23:54:58.891Z,2.70
2018-03-31T23:57:26.209Z,2.70
2018-03-31T23:59:53.131Z,2.70
